Time;durP1;ratioP1;P1;durP2;ratioP2;P2;SDS_P1;SDS_P2;PMS_P1;PMS_P2;Temp;Humidity;BMP_temperature;BMP_pressure;BME280_temperature;BME280_humidity;BME280_pressure;Samples;Min_cycle;Max_cycle;Signal;HPM_P1;HPM_P2
2023/12/19 00:00:05;;;;;;;32.97;16.60;;;;;;;-141.97;75.53;46208.50;5011664;28;20163;-88
2023/12/19 00:02:31;;;;;;;28.33;14.67;;;;;;;-141.97;74.89;46058.63;5023073;28;20417;-88
2023/12/19 00:04:56;;;;;;;21.47;12.70;;;;;;;-141.97;74.81;46208.50;5019940;28;20485;-87
2023/12/19 00:07:21;;;;;;;22.70;12.07;;;;;;;-141.97;74.20;46125.88;5013021;28;20155;-88
2023/12/19 00:09:48;;;;;;;23.47;11.87;;;;;;;-141.97;73.74;46546.66;5010110;28;20250;-89
2023/12/19 00:12:13;;;;;;;23.03;13.00;;;;;;;-141.97;74.03;46052.88;5010527;28;20233;-89
2023/12/19 00:14:39;;;;;;;28.90;14.30;;;;;;;-141.97;74.04;46646.59;5010929;28;20405;-89
2023/12/19 00:17:04;;;;;;;39.43;21.00;;;;;;;-141.97;73.51;46014.44;5011413;28;20236;-88
2023/12/19 00:19:30;;;;;;;41.20;20.50;;;;;;;-141.97;73.06;46147.03;5010679;28;20230;-88
2023/12/19 00:21:56;;;;;;;26.73;14.27;;;;;;;-141.97;73.13;46166.22;5010907;28;20163;-87
2023/12/19 00:24:21;;;;;;;21.17;10.77;;;;;;;-141.97;73.95;46102.81;5010925;28;20542;-88
2023/12/19 00:26:46;;;;;;;23.30;12.20;;;;;;;-141.97;73.96;46114.34;5010692;28;20402;-89
2023/12/19 00:29:12;;;;;;;26.97;13.97;;;;;;;-141.97;74.12;46056.72;5011362;28;20159;-87
2023/12/19 00:31:37;;;;;;;23.53;11.83;;;;;;;-141.97;74.40;46189.28;5010957;28;20221;-88
2023/12/19 00:34:03;;;;;;;25.10;12.87;;;;;;;-141.97;74.40;46160.47;5010792;28;20229;-90
2023/12/19 00:36:28;;;;;;;29.10;14.77;;;;;;;-141.97;74.61;46156.63;5009359;28;20534;-89
2023/12/19 00:38:54;;;;;;;30.00;15.53;;;;;;;-141.97;74.50;46143.19;5009302;28;20199;-86
2023/12/19 00:41:19;;;;;;;24.20;13.00;;;;;;;-141.97;75.11;46173.91;5027065;28;20196;-89
2023/12/19 00:43:45;;;;;;;27.13;13.87;;;;;;;-141.97;75.47;46177.75;5011216;28;20175;-88
2023/12/19 00:46:11;;;;;;;28.47;14.80;;;;;;;-141.97;75.75;46581.25;5010627;28;20197;-89
2023/12/19 00:48:37;;;;;;;28.57;13.73;;;;;;;-141.97;75.65;46308.41;5009570;28;20185;-88
2023/12/19 00:51:07;;;;;;;22.40;11.30;;;;;;;-141.97;75.88;46325.69;5009014;28;20910;-88
2023/12/19 00:53:33;;;;;;;26.00;12.83;;;;;;;-141.97;75.99;46185.44;5008916;28;20186;-88
2023/12/19 00:55:58;;;;;;;24.53;12.13;;;;;;;-141.97;75.57;46250.78;5010536;28;20402;-88
2023/12/19 00:58:23;;;;;;;26.83;13.50;;;;;;;-141.97;75.99;46421.78;5025424;28;20201;-88
2023/12/19 01:00:49;;;;;;;27.20;12.73;;;;;;;-141.97;76.40;46489.03;5009011;28;20167;-88
2023/12/19 01:03:14;;;;;;;24.80;12.80;;;;;;;-141.97;76.14;46087.47;5010343;28;20203;-88
2023/12/19 01:05:40;;;;;;;21.73;11.90;;;;;;;-141.97;75.62;46035.59;5010738;28;20174;-90
2023/12/19 01:08:05;;;;;;;22.87;12.23;;;;;;;-141.97;75.62;46122.03;5010287;28;20159;-89
2023/12/19 01:10:31;;;;;;;24.43;12.43;;;;;;;-141.97;75.88;45993.31;5010127;28;20178;-88
2023/12/19 01:12:56;;;;;;;22.87;11.60;;;;;;;-141.97;75.76;46129.72;5009068;28;20162;-89
2023/12/19 01:15:22;;;;;;;24.07;13.03;;;;;;;-141.97;76.22;46058.63;5025682;28;20171;-88
2023/12/19 01:17:47;;;;;;;23.30;12.77;;;;;;;-141.97;76.51;46287.28;5008604;28;20703;-88
2023/12/19 01:20:13;;;;;;;40.33;21.57;;;;;;;-141.97;76.42;46079.78;5008946;28;20638;-88
2023/12/19 01:22:38;;;;;;;48.03;23.80;;;;;;;-141.97;76.33;46223.88;5010384;28;20186;-88
2023/12/19 01:25:04;;;;;;;40.30;20.50;;;;;;;-141.97;76.70;46540.91;5012295;28;21005;-88
2023/12/19 01:27:29;;;;;;;42.53;20.73;;;;;;;-141.97;77.14;46147.03;5014729;28;20256;-87
2023/12/19 01:29:54;;;;;;;40.13;19.50;;;;;;;-141.97;76.60;46116.28;5016250;28;20159;-89
2023/12/19 01:32:20;;;;;;;28.80;15.00;;;;;;;-141.97;76.68;46417.94;4985216;28;20707;-88
2023/12/19 01:34:46;;;;;;;24.43;13.03;;;;;;;-141.97;76.67;46035.59;4914034;29;20177;-88
2023/12/19 01:37:12;;;;;;;25.03;13.57;;;;;;;-141.97;77.32;46141.25;4914106;29;20173;-88
2023/12/19 01:39:38;;;;;;;28.73;15.40;;;;;;;-141.97;77.61;46185.44;4912557;28;20414;-88
2023/12/19 01:42:03;;;;;;;32.10;15.93;;;;;;;-141.97;78.10;46546.66;4912609;28;20445;-90
2023/12/19 01:44:28;;;;;;;28.07;15.17;;;;;;;-141.97;78.68;46075.94;4934570;28;20165;-88
2023/12/19 01:46:54;;;;;;;27.00;14.40;;;;;;;-141.97;79.14;46110.50;4936287;28;20229;-88
2023/12/19 01:49:19;;;;;;;27.93;14.03;;;;;;;-141.97;79.50;46097.06;4937350;28;20159;-87
2023/12/19 01:51:45;;;;;;;27.90;15.03;;;;;;;-141.97;80.67;46508.22;4937903;28;20214;-87
2023/12/19 01:54:12;;;;;;;29.00;14.73;;;;;;;-141.97;80.42;46081.69;4936512;28;20171;-87
2023/12/19 01:56:38;;;;;;;31.70;15.90;;;;;;;-141.97;80.71;46135.50;4926073;29;20162;-89
2023/12/19 01:59:07;;;;;;;30.77;15.30;;;;;;;-141.97;82.31;46154.69;4914041;29;20461;-87
2023/12/19 02:01:38;;;;;;;29.47;15.53;;;;;;;-141.97;83.66;46264.22;4913813;28;20181;-89
2023/12/19 02:04:04;;;;;;;30.07;15.57;;;;;;;-141.97;83.74;46054.81;4914193;29;20395;-88
2023/12/19 02:06:33;;;;;;;28.27;15.50;;;;;;;-141.97;83.83;46173.91;4913905;29;20398;-89
2023/12/19 02:08:58;;;;;;;29.70;15.60;;;;;;;-141.97;83.86;46612.00;4913704;29;20964;-88
2023/12/19 02:11:24;;;;;;;33.80;16.33;;;;;;;-141.97;83.94;46131.66;4912186;28;20460;-89
2023/12/19 02:13:49;;;;;;;28.97;14.27;;;;;;;-141.97;83.56;46195.06;4913810;29;20734;-87
2023/12/19 02:16:15;;;;;;;25.03;12.73;;;;;;;-141.97;82.90;46569.72;4913530;29;20249;-90
2023/12/19 02:18:40;;;;;;;25.53;13.20;;;;;;;-141.97;82.81;46531.28;4913843;28;20237;-87
2023/12/19 02:21:05;;;;;;;33.60;16.93;;;;;;;-141.97;82.79;46225.78;4914864;29;20179;-87
2023/12/19 02:23:31;;;;;;;38.43;18.87;;;;;;;-141.97;82.33;46202.72;4915978;29;20249;-88
2023/12/19 02:25:57;;;;;;;39.90;18.90;;;;;;;-141.97;81.96;46350.69;4913523;29;20166;-87
2023/12/19 02:28:23;;;;;;;39.07;19.97;;;;;;;-141.97;82.35;46175.84;4912859;29;20159;-88
2023/12/19 02:30:48;;;;;;;40.63;21.03;;;;;;;-141.97;82.88;46335.31;4912349;29;20174;-88
2023/12/19 02:33:14;;;;;;;37.47;19.17;;;;;;;-141.97;83.39;46154.69;4914971;29;20410;-88
2023/12/19 02:35:39;;;;;;;30.57;15.50;;;;;;;-141.97;82.55;46122.03;4914462;29;20190;-88
2023/12/19 02:38:05;;;;;;;29.40;15.30;;;;;;;-141.97;81.83;46204.66;4914865;29;20244;-88
2023/12/19 02:40:30;;;;;;;24.80;13.33;;;;;;;-141.97;81.69;46058.63;4913312;29;20178;-87
2023/12/19 02:42:56;;;;;;;21.60;11.77;;;;;;;-141.97;81.30;45974.09;4914205;29;20255;-88
2023/12/19 02:45:21;;;;;;;23.57;12.33;;;;;;;-141.97;81.27;46508.22;4916659;29;20202;-87
2023/12/19 02:47:47;;;;;;;24.30;13.07;;;;;;;-141.97;81.57;46285.34;4914713;29;20253;-90
2023/12/19 02:50:12;;;;;;;28.47;13.90;;;;;;;-141.97;81.02;46018.28;4921130;29;20166;-86
2023/12/19 02:52:38;;;;;;;35.17;15.83;;;;;;;-141.97;80.90;46254.59;4916924;29;20260;-88
2023/12/19 02:55:04;;;;;;;34.03;16.70;;;;;;;-141.97;80.91;46462.13;4914480;29;20162;-89
2023/12/19 02:57:29;;;;;;;40.37;17.27;;;;;;;-141.97;81.37;46596.63;4915869;29;20190;-87
2023/12/19 02:59:55;;;;;;;40.90;17.63;;;;;;;-141.97;81.34;46062.47;4913616;29;20414;-89
2023/12/19 03:02:21;;;;;;;39.93;17.97;;;;;;;-141.97;81.46;46577.41;4914433;29;20604;-88
2023/12/19 03:04:46;;;;;;;42.30;19.40;;;;;;;-141.97;81.34;46116.28;4911881;29;20185;-87
2023/12/19 03:07:11;;;;;;;40.17;18.53;;;;;;;-141.97;81.30;46537.06;4913978;29;20178;-87
2023/12/19 03:09:37;;;;;;;54.27;25.23;;;;;;;-141.97;81.25;46250.78;4913041;29;20621;-89
2023/12/19 03:12:05;;;;;;;49.60;24.97;;;;;;;-141.97;81.37;46258.44;4914371;29;20171;-86
2023/12/19 03:14:31;;;;;;;54.93;28.63;;;;;;;-141.97;81.06;46089.38;4930670;29;20205;-88
2023/12/19 03:16:57;;;;;;;36.43;19.47;;;;;;;-141.97;81.48;46264.22;4912466;29;20429;-87
2023/12/19 03:19:23;;;;;;;41.23;20.40;;;;;;;-141.97;81.50;46131.66;4913215;28;20474;-91
2023/12/19 03:21:48;;;;;;;39.70;19.77;;;;;;;-141.97;81.49;46206.56;4914175;29;20229;-89
2023/12/19 03:24:14;;;;;;;33.13;18.83;;;;;;;-141.97;81.79;46621.59;4916757;29;20175;-87
2023/12/19 03:26:39;;;;;;;40.83;26.13;;;;;;;-141.97;81.28;46291.13;4915905;29;20194;-87
2023/12/19 03:29:04;;;;;;;29.13;13.70;;;;;;;-141.97;81.59;46243.09;4937107;29;20197;-87
2023/12/19 03:31:30;;;;;;;29.80;13.43;;;;;;;-141.97;82.24;46348.75;4922229;29;20356;-89
2023/12/19 03:33:55;;;;;;;27.20;13.90;;;;;;;-141.97;82.97;46116.28;4915417;29;20165;-87
2023/12/19 03:36:21;;;;;;;24.03;13.33;;;;;;;-141.97;83.15;46129.72;4913018;29;20209;-88
2023/12/19 03:38:46;;;;;;;26.60;14.17;;;;;;;-141.97;83.13;46135.50;4911945;29;20675;-86
2023/12/19 03:41:12;;;;;;;27.97;14.13;;;;;;;-141.97;83.51;46523.59;4914418;29;20194;-87
2023/12/19 03:43:37;;;;;;;32.10;16.63;;;;;;;-141.97;83.11;46135.50;4912408;29;20663;-88
2023/12/19 03:46:04;;;;;;;28.63;14.80;;;;;;;-141.97;83.22;46656.19;4913117;29;20174;-89
2023/12/19 03:48:30;;;;;;;25.50;13.77;;;;;;;-141.97;82.53;46085.53;4912128;29;20163;-90
2023/12/19 03:50:56;;;;;;;20.67;10.90;;;;;;;-141.97;82.04;46131.66;4920150;29;20442;-90
2023/12/19 03:53:22;;;;;;;23.40;12.30;;;;;;;-141.97;81.38;46239.25;4911110;29;20430;-89
2023/12/19 03:55:48;;;;;;;28.03;13.87;;;;;;;-141.97;80.79;46496.72;4912308;29;20501;-89
2023/12/19 03:58:13;;;;;;;21.20;10.93;;;;;;;-141.97;80.54;46143.19;4910520;29;20541;-90
2023/12/19 04:00:38;;;;;;;20.30;10.43;;;;;;;-141.97;80.18;46093.22;4910702;29;20234;-88
2023/12/19 04:03:04;;;;;;;19.43;10.43;;;;;;;-141.97;79.20;46262.28;4912037;29;20173;-88
2023/12/19 04:05:29;;;;;;;20.83;10.20;;;;;;;-141.97;79.36;46123.97;4910392;28;20649;-89
2023/12/19 04:07:55;;;;;;;17.80;9.70;;;;;;;-141.97;79.52;46321.84;4911980;29;20252;-87
2023/12/19 04:10:20;;;;;;;19.07;10.40;;;;;;;-141.97;78.84;46619.69;4910874;29;20186;-89
2023/12/19 04:12:46;;;;;;;18.30;8.87;;;;;;;-141.97;78.86;46196.97;4911938;29;20268;-88
2023/12/19 04:15:11;;;;;;;15.33;8.20;;;;;;;-141.97;78.25;46135.50;4918847;29;20170;-88
2023/12/19 04:17:37;;;;;;;16.87;8.00;;;;;;;-141.97;78.03;46131.66;4915136;28;20240;-88
2023/12/19 04:20:03;;;;;;;15.40;8.43;;;;;;;-141.97;77.44;46256.53;4912781;29;20174;-87
2023/12/19 04:22:31;;;;;;;15.67;7.13;;;;;;;-141.97;76.86;46108.59;4910440;29;20212;-87
2023/12/19 04:24:56;;;;;;;12.23;7.30;;;;;;;-141.97;77.00;46604.31;4911453;29;20851;-87
2023/12/19 04:27:22;;;;;;;16.23;7.50;;;;;;;-141.97;76.53;46625.44;4913708;29;20415;-87
2023/12/19 04:29:47;;;;;;;13.63;7.53;;;;;;;-141.97;76.44;46035.59;4913043;29;20173;-86
2023/12/19 04:32:13;;;;;;;21.47;11.50;;;;;;;-141.97;77.15;46688.84;4912938;29;20688;-87
2023/12/19 04:34:39;;;;;;;32.13;18.80;;;;;;;-141.97;77.30;46204.66;4910649;29;20220;-88
2023/12/19 04:37:04;;;;;;;29.83;14.70;;;;;;;-141.97;76.96;46269.97;4910800;29;20425;-88
2023/12/19 04:39:30;;;;;;;50.20;22.60;;;;;;;-141.97;76.94;46089.38;4912199;29;20174;-88
2023/12/19 04:41:55;;;;;;;55.27;25.97;;;;;;;-141.97;77.11;46100.91;4910459;29;20173;-88
2023/12/19 04:44:22;;;;;;;23.17;11.70;;;;;;;-141.97;77.06;46160.47;4911160;29;20257;-88
2023/12/19 04:46:47;;;;;;;17.30;8.67;;;;;;;-141.97;77.68;46058.63;4929185;28;20198;-89
2023/12/19 04:49:13;;;;;;;18.60;10.00;;;;;;;-141.97;77.87;46241.16;4910644;29;20415;-89
2023/12/19 04:51:38;;;;;;;15.97;9.17;;;;;;;-141.97;77.59;46635.06;4910317;29;20307;-89
2023/12/19 04:54:05;;;;;;;14.43;7.80;;;;;;;-141.97;77.96;46565.88;4912993;29;20269;-88
2023/12/19 04:56:31;;;;;;;14.80;7.80;;;;;;;-141.97;77.98;46156.63;4912159;29;20174;-88
2023/12/19 04:58:57;;;;;;;12.73;6.90;;;;;;;-141.97;77.99;45997.16;4913299;29;20469;-88
2023/12/19 05:01:22;;;;;;;19.03;11.23;;;;;;;-141.97;78.27;46027.91;4914864;29;20623;-88
2023/12/19 05:03:48;;;;;;;16.07;9.27;;;;;;;-141.97;77.99;46287.28;4914600;29;20633;-88
2023/12/19 05:06:19;;;;;;;14.87;7.73;;;;;;;-141.97;77.65;46133.56;4916678;29;20245;-88
2023/12/19 05:08:45;;;;;;;10.50;6.40;;;;;;;-141.97;77.10;46268.06;4925206;29;20249;-86
2023/12/19 05:11:11;;;;;;;9.97;5.97;;;;;;;-141.97;76.42;46519.75;4931402;29;20410;-87
2023/12/19 05:13:37;;;;;;;11.47;5.57;;;;;;;-141.97;76.38;46454.44;4930924;29;20264;-88
2023/12/19 05:16:16;;;;;;;10.20;5.33;;;;;;;-141.97;75.33;46104.75;4916394;29;20174;-88
2023/12/19 05:18:42;;;;;;;10.73;5.47;;;;;;;-141.97;74.92;46254.59;4917161;28;20292;-87
2023/12/19 05:21:09;;;;;;;9.37;4.93;;;;;;;-141.97;73.59;46091.31;4916956;29;20478;-88
2023/12/19 05:23:35;;;;;;;10.63;5.73;;;;;;;-141.97;72.81;46066.31;4914080;29;20914;-88
2023/12/19 05:26:02;;;;;;;10.43;6.27;;;;;;;-141.97;72.49;46093.22;4913936;29;20505;-87
2023/12/19 05:28:27;;;;;;;11.83;7.20;;;;;;;-141.97;72.25;46450.59;4912993;29;20464;-88
2023/12/19 05:30:56;;;;;;;8.90;4.10;;;;;;;-141.97;72.20;46127.81;4917470;29;20426;-86
2023/12/19 05:33:25;;;;;;;10.80;6.50;;;;;;;-141.97;72.39;46517.84;4912885;29;20186;-87
2023/12/19 05:35:51;;;;;;;8.80;4.83;;;;;;;-141.97;71.83;46196.97;4913764;29;20846;-86
2023/12/19 05:38:17;;;;;;;12.00;6.17;;;;;;;-141.97;72.00;46195.06;4912446;29;20552;-87
2023/12/19 05:40:43;;;;;;;9.20;4.87;;;;;;;-141.97;71.77;46291.13;4912744;29;20185;-87
2023/12/19 05:43:08;;;;;;;14.33;7.73;;;;;;;-141.97;71.91;46202.72;4914528;29;20418;-88
2023/12/19 05:45:34;;;;;;;12.23;7.43;;;;;;;-141.97;72.52;46177.75;4915199;29;20171;-87
2023/12/19 05:48:00;;;;;;;13.33;7.70;;;;;;;-141.97;72.84;46537.06;4928963;29;20266;-87
2023/12/19 05:50:25;;;;;;;14.00;8.27;;;;;;;-141.97;72.96;46235.41;4912826;29;20182;-88
2023/12/19 05:52:52;;;;;;;16.60;10.37;;;;;;;-141.97;73.29;46656.19;4915768;29;20166;-88
2023/12/19 05:55:17;;;;;;;23.40;13.30;;;;;;;-141.97;73.97;46112.44;4914584;29;20372;-88
2023/12/19 05:57:43;;;;;;;33.70;18.57;;;;;;;-141.97;74.80;46531.28;4913094;29;20988;-88
2023/12/19 06:00:08;;;;;;;50.50;25.47;;;;;;;-141.97;75.21;46158.53;4912809;29;20170;-86
2023/12/19 06:02:34;;;;;;;30.23;16.33;;;;;;;-141.97;76.36;46250.78;4914564;29;20552;-86
2023/12/19 06:05:07;;;;;;;47.80;24.47;;;;;;;-141.97;76.37;46185.44;4916585;29;20169;-87
2023/12/19 06:07:36;;;;;;;27.40;13.60;;;;;;;-141.97;75.98;46135.50;4916900;29;20162;-88
2023/12/19 06:10:13;;;;;;;45.37;23.37;;;;;;;-141.97;74.64;46273.81;4912773;29;20488;-86
2023/12/19 06:12:39;;;;;;;22.20;12.47;;;;;;;-141.97;73.91;46131.66;4914017;29;20433;-89
2023/12/19 06:15:08;;;;;;;16.40;7.53;;;;;;;-141.97;72.58;46546.66;4912756;29;20497;-88
2023/12/19 06:17:35;;;;;;;14.83;7.23;;;;;;;-141.97;71.49;46206.56;4911980;28;20265;-87
2023/12/19 06:20:01;;;;;;;18.20;8.63;;;;;;;-141.97;70.53;46631.22;4912452;29;20417;-87
2023/12/19 06:22:27;;;;;;;16.67;8.37;;;;;;;-141.97;70.04;46498.63;4972205;22;20475;-88
2023/12/19 06:24:53;;;;;;;25.37;12.73;;;;;;;-141.97;68.64;46204.66;4974233;28;20528;-88
2023/12/19 06:27:18;;;;;;;28.57;16.17;;;;;;;-141.97;67.87;46204.66;5033149;28;20192;-87
2023/12/19 06:29:43;;;;;;;36.23;19.07;;;;;;;-141.97;67.52;46002.94;4961900;28;20263;-88
2023/12/19 06:32:10;;;;;;;35.60;21.67;;;;;;;-141.97;65.27;46027.91;5043694;28;20246;-87
2023/12/19 06:34:36;;;;;;;48.13;24.27;;;;;;;-141.97;63.22;46442.91;4969407;28;20614;-85
2023/12/19 06:37:02;;;;;;;45.93;22.60;;;;;;;-141.97;63.24;46075.94;4955875;29;20188;-88
2023/12/19 06:39:27;;;;;;;45.10;24.07;;;;;;;-141.97;63.73;46093.22;5036888;28;20215;-88
2023/12/19 06:41:53;;;;;;;37.13;20.03;;;;;;;-141.97;64.59;46517.84;4953002;29;20169;-88
2023/12/19 06:44:19;;;;;;;32.00;17.70;;;;;;;-141.97;64.78;46310.31;5018270;28;20181;-88
2023/12/19 06:46:46;;;;;;;17.63;9.97;;;;;;;-141.97;64.76;46070.16;5018947;28;20259;-87
2023/12/19 06:49:15;;;;;;;14.90;8.13;;;;;;;-141.97;64.59;46077.84;4951853;29;20166;-90
2023/12/19 06:51:41;;;;;;;27.57;14.33;;;;;;;-141.97;64.54;46554.34;4952236;29;20185;-87
2023/12/19 06:54:06;;;;;;;39.43;20.00;;;;;;;-141.97;62.72;46108.59;4953314;29;20287;-88
2023/12/19 06:56:32;;;;;;;34.37;17.43;;;;;;;-141.97;54.13;46031.75;5035875;28;20263;-86
2023/12/19 06:58:57;;;;;;;65.87;37.67;;;;;;;-141.97;48.39;45995.25;4953102;29;20207;-88
2023/12/19 07:01:24;;;;;;;37.17;22.97;;;;;;;-141.97;44.16;45040.56;4956009;29;20177;-88
2023/12/19 07:03:49;;;;;;;21.10;13.90;;;;;;;-141.97;41.82;46343.00;5021434;28;20244;-89
2023/12/19 07:06:15;;;;;;;70.73;40.37;;;;;;;-141.97;40.13;45851.16;5022707;28;20215;-88
2023/12/19 07:08:41;;;;;;;51.70;31.00;;;;;;;-141.97;38.12;45855.00;4952906;28;20265;-89
2023/12/19 07:11:07;;;;;;;126.40;65.57;;;;;;;-141.97;35.54;45741.66;4952558;29;20169;-87
2023/12/19 07:13:33;;;;;;;123.23;63.93;;;;;;;-141.97;34.82;45689.78;5018077;28;20172;-88
2023/12/19 07:15:58;;;;;;;96.47;51.73;;;;;;;-141.97;34.16;45780.06;5017804;28;20228;-88
2023/12/19 07:18:24;;;;;;;76.67;42.30;;;;;;;-141.97;33.78;45712.84;5018609;28;20211;-89
2023/12/19 07:20:49;;;;;;;72.70;40.90;;;;;;;-141.97;32.76;45860.75;4952531;28;20199;-88
2023/12/19 07:23:15;;;;;;;41.97;23.07;;;;;;;-141.97;33.17;45720.53;4951309;28;20220;-90
2023/12/19 07:25:41;;;;;;;30.70;17.43;;;;;;;-141.97;33.93;45808.91;5017031;28;20187;-87
2023/12/19 07:28:07;;;;;;;72.37;42.10;;;;;;;-141.97;35.00;45659.06;5016879;28;20188;-89
2023/12/19 07:30:32;;;;;;;103.63;57.43;;;;;;;-141.97;37.93;45908.78;5033503;28;20177;-89
2023/12/19 07:32:59;;;;;;;106.80;58.67;;;;;;;-141.97;41.36;46294.97;5035018;28;20238;-87
2023/12/19 07:35:25;;;;;;;78.73;41.57;;;;;;;-141.97;44.11;46016.38;5019487;28;20177;-88
2023/12/19 07:38:16;;;;;;;69.90;42.63;;;;;;;-141.97;46.10;46024.06;4952569;29;20207;-88
2023/12/19 07:40:42;;;;;;;118.53;62.53;;;;;;;-141.97;48.67;46289.19;5007060;28;20194;-90
2023/12/19 07:43:07;;;;;;;75.40;40.70;;;;;;;-141.97;49.99;46150.84;4992958;28;20197;-89
2023/12/19 07:45:33;;;;;;;70.37;40.47;;;;;;;-141.97;49.47;46442.91;4991922;28;20678;-88
2023/12/19 07:47:58;;;;;;;46.80;25.60;;;;;;;-141.97;49.23;45981.78;5009155;28;20203;-88
2023/12/19 07:50:24;;;;;;;56.30;31.60;;;;;;;-141.97;50.14;46033.66;5016799;28;20166;-90
2023/12/19 07:52:49;;;;;;;27.50;18.27;;;;;;;-141.97;49.10;46367.97;5003128;28;20190;-88
2023/12/19 07:55:15;;;;;;;20.30;11.90;;;;;;;-141.97;49.22;46396.78;5018771;28;20257;-88
2023/12/19 07:57:40;;;;;;;11.73;7.03;;;;;;;-141.97;49.05;46356.44;5011327;28;20218;-88
2023/12/19 08:00:08;;;;;;;14.03;7.43;;;;;;;-141.97;49.80;45830.03;5009127;28;20751;-89
2023/12/19 08:02:35;;;;;;;10.47;5.83;;;;;;;-141.97;50.21;45870.38;5010967;28;20302;-88
2023/12/19 08:05:01;;;;;;;12.33;6.93;;;;;;;-141.97;49.49;46041.34;4994712;28;20186;-88
2023/12/19 08:07:27;;;;;;;9.77;5.63;;;;;;;-141.97;49.40;46001.00;5011718;28;20166;-88
2023/12/19 08:09:52;;;;;;;15.87;8.77;;;;;;;-141.97;50.55;46050.97;5009935;28;20218;-88
2023/12/19 08:12:18;;;;;;;16.53;7.43;;;;;;;-141.97;50.59;45839.63;4995843;28;20175;-89
2023/12/19 08:14:43;;;;;;;17.57;9.03;;;;;;;-141.97;50.00;46396.78;5012671;28;20253;-89
2023/12/19 08:17:08;;;;;;;19.37;12.27;;;;;;;-141.97;48.81;45908.78;4992705;28;20199;-88
2023/12/19 08:19:36;;;;;;;12.87;8.20;;;;;;;-141.97;47.16;45974.09;4951769;29;20587;-88
2023/12/19 08:22:01;;;;;;;29.13;18.07;;;;;;;-141.97;46.44;46285.34;5017766;28;20207;-89
2023/12/19 08:24:27;;;;;;;27.10;16.33;;;;;;;-141.97;45.94;45762.78;5018437;28;20184;-89
2023/12/19 08:26:52;;;;;;;26.53;13.93;;;;;;;-141.97;45.91;46406.41;5019495;28;20186;-91
2023/12/19 08:29:18;;;;;;;21.57;13.10;;;;;;;-141.97;46.35;45974.09;5024316;28;20621;-89
2023/12/19 08:31:46;;;;;;;13.13;7.87;;;;;;;-141.97;45.84;45805.06;5036301;28;20256;-89
2023/12/19 08:34:11;;;;;;;12.37;6.97;;;;;;;-141.97;45.75;45806.97;4955770;29;20199;-90
2023/12/19 08:36:37;;;;;;;9.20;5.33;;;;;;;-141.97;46.01;46273.81;5020687;28;20244;-89
2023/12/19 08:39:07;;;;;;;10.47;6.57;;;;;;;-141.97;46.21;46020.22;5019508;28;20189;-89
2023/12/19 08:41:32;;;;;;;12.87;8.13;;;;;;;-141.97;45.96;45903.03;5028247;28;20175;-88
2023/12/19 08:43:58;;;;;;;11.80;6.67;;;;;;;-141.97;46.01;45743.56;4959817;29;20192;-89
2023/12/19 08:46:24;;;;;;;16.03;10.33;;;;;;;-141.97;45.95;45879.97;5037280;28;20169;-88
2023/12/19 08:48:52;;;;;;;14.70;9.27;;;;;;;-141.97;46.31;46008.69;5020667;28;20161;-88
2023/12/19 08:51:17;;;;;;;16.20;9.17;;;;;;;-141.97;46.24;46281.50;4953234;29;20701;-88
2023/12/19 08:53:43;;;;;;;35.27;15.83;;;;;;;-141.97;44.95;45918.41;4951493;28;20192;-88
2023/12/19 08:56:08;;;;;;;16.03;9.93;;;;;;;-141.97;44.37;46223.88;4951954;28;20168;-89
2023/12/19 08:58:34;;;;;;;104.17;50.53;;;;;;;-141.97;44.96;46264.22;5017195;28;20279;-89
2023/12/19 09:00:59;;;;;;;28.13;16.67;;;;;;;-141.97;44.18;46218.09;5017849;28;20169;-89
2023/12/19 09:03:25;;;;;;;18.30;11.30;;;;;;;-141.97;44.88;45710.91;4952226;28;20248;-89
2023/12/19 09:05:54;;;;;;;41.73;22.53;;;;;;;-141.97;43.94;45801.22;4958106;29;20172;-90
2023/12/19 09:08:19;;;;;;;44.47;18.23;;;;;;;-141.97;44.45;46183.53;5025673;28;20631;-89
2023/12/19 09:10:46;;;;;;;13.73;8.00;;;;;;;-141.97;44.10;45793.53;5018941;28;20181;-89
2023/12/19 09:13:11;;;;;;;11.57;7.80;;;;;;;-141.97;44.07;45801.22;4953875;28;20266;-89
2023/12/19 09:15:36;;;;;;;12.23;7.80;;;;;;;-141.97;44.30;46266.13;4954343;29;20169;-88
2023/12/19 09:18:03;;;;;;;11.70;7.27;;;;;;;-141.97;44.23;46193.13;5019794;28;20201;-89
2023/12/19 09:20:29;;;;;;;11.47;6.80;;;;;;;-141.97;44.86;45952.97;5019066;28;20183;-89
2023/12/19 09:22:55;;;;;;;22.37;12.07;;;;;;;-141.97;44.95;45977.94;5016925;28;20220;-88
2023/12/19 09:25:20;;;;;;;23.13;14.37;;;;;;;-141.97;44.25;45839.63;4952021;29;20287;-89
2023/12/19 09:27:46;;;;;;;19.57;11.77;;;;;;;-141.97;43.17;45845.41;5018514;28;20165;-90
2023/12/19 09:30:14;;;;;;;19.80;13.50;;;;;;;-141.97;42.71;45818.50;4952871;29;20554;-87
2023/12/19 09:32:41;;;;;;;40.67;19.10;;;;;;;-141.97;41.70;45954.91;5020360;28;20264;-88
2023/12/19 09:35:07;;;;;;;46.20;24.27;;;;;;;-141.97;41.93;45816.56;5035399;28;20226;-88
2023/12/19 09:37:33;;;;;;;67.17;40.70;;;;;;;-141.97;42.08;45920.31;4952000;28;20201;-88
2023/12/19 09:39:59;;;;;;;53.00;30.33;;;;;;;-141.97;41.31;46175.84;5018473;28;21098;-90
2023/12/19 09:42:24;;;;;;;33.40;18.53;;;;;;;-141.97;40.61;45878.06;5021502;28;20203;-89
2023/12/19 09:44:51;;;;;;;46.60;31.50;;;;;;;-141.97;40.49;45862.69;4958587;29;20185;-89
2023/12/19 09:47:23;;;;;;;34.20;22.33;;;;;;;-141.97;39.98;45820.41;5025718;28;20342;-89
2023/12/19 09:49:51;;;;;;;35.70;22.70;;;;;;;-141.97;39.77;45862.69;5040244;28;20223;-89
2023/12/19 09:52:18;;;;;;;25.27;14.80;;;;;;;-141.97;40.27;45918.41;5025143;28;20187;-88
2023/12/19 09:54:43;;;;;;;16.60;9.03;;;;;;;-141.97;39.85;45716.69;5024353;28;20203;-88
2023/12/19 09:57:12;;;;;;;17.27;10.27;;;;;;;-141.97;39.48;45685.94;5026499;28;20264;-88
2023/12/19 09:59:39;;;;;;;12.37;8.80;;;;;;;-141.97;40.03;45701.31;4958858;28;20645;-88
2023/12/19 10:02:05;;;;;;;15.07;9.60;;;;;;;-141.97;40.78;46150.84;4955528;29;20172;-88
2023/12/19 10:04:30;;;;;;;24.47;15.87;;;;;;;-141.97;41.93;46162.38;4952805;29;20181;-86
2023/12/19 10:07:00;;;;;;;23.50;14.30;;;;;;;-141.97;41.35;45885.72;5019259;28;20602;-84
2023/12/19 10:09:25;;;;;;;18.87;11.40;;;;;;;-141.97;40.40;45870.38;4953563;28;20157;-85
2023/12/19 10:12:09;;;;;;;19.90;12.10;;;;;;;-141.97;40.05;45868.44;4955150;29;20176;-85
2023/12/19 10:14:35;;;;;;;17.77;11.47;;;;;;;-141.97;39.17;45751.25;5037913;28;20184;-85
2023/12/19 10:17:04;;;;;;;13.03;7.30;;;;;;;-141.97;39.22;45956.81;4954126;28;20157;-85
2023/12/19 10:19:30;;;;;;;19.50;12.70;;;;;;;-141.97;39.53;45856.91;4953748;29;20189;-86
2023/12/19 10:22:13;;;;;;;22.70;13.70;;;;;;;-141.97;39.14;45862.69;4958227;28;20168;-86
2023/12/19 10:24:38;;;;;;;12.13;8.57;;;;;;;-141.97;39.71;45862.69;4972554;29;20184;-84
2023/12/19 10:27:08;;;;;;;16.90;9.47;;;;;;;-141.97;39.26;45808.91;4970926;29;20191;-84
2023/12/19 10:29:36;;;;;;;11.80;7.97;;;;;;;-141.97;38.90;45762.78;4958441;29;20204;-84
2023/12/19 10:32:15;;;;;;;19.50;8.97;;;;;;;-141.97;38.78;45881.91;5024198;28;20192;-83
2023/12/19 10:34:41;;;;;;;16.80;11.43;;;;;;;-141.97;38.17;45789.69;5018300;28;20670;-83
2023/12/19 10:37:17;;;;;;;22.50;14.63;;;;;;;-141.97;38.78;45895.34;5034237;28;20245;-83
2023/12/19 10:39:44;;;;;;;12.77;7.90;;;;;;;-141.97;38.06;45793.53;5018844;28;20172;-84
2023/12/19 10:42:10;;;;;;;13.87;10.07;;;;;;;-141.97;37.29;45983.72;5019778;28;20176;-84
2023/12/19 10:44:42;;;;;;;18.87;9.20;;;;;;;-141.97;37.60;46099.00;4953047;28;20214;-85
2023/12/19 10:47:08;;;;;;;15.80;9.93;;;;;;;-141.97;37.32;46227.72;5018395;28;20282;-83
2023/12/19 10:49:37;;;;;;;11.33;7.93;;;;;;;-141.97;37.50;45839.63;4951295;29;20519;-84
2023/12/19 10:52:09;;;;;;;12.80;8.97;;;;;;;-141.97;37.34;45991.41;4952141;29;20219;-84
2023/12/19 10:54:36;;;;;;;15.23;10.40;;;;;;;-141.97;37.73;45845.41;5017456;28;20657;-84
2023/12/19 10:57:17;;;;;;;11.13;8.00;;;;;;;-141.97;37.76;45864.59;4951392;28;20180;-83
2023/12/19 11:00:13;;;;;;;19.93;13.07;;;;;;;-141.97;38.00;46100.91;4955632;29;20545;-84